createdAt,value
2023-02-12T00:01:35.754Z,11.03
2023-02-12T00:04:02.182Z,11.05
2023-02-12T00:06:28.592Z,11.12
2023-02-12T00:08:56.344Z,11.07
2023-02-12T00:11:28.484Z,10.73
2023-02-12T00:13:55.735Z,10.36
2023-02-12T00:16:25.658Z,9.94
2023-02-12T00:18:54.268Z,10.60
2023-02-12T00:21:22.135Z,11.03
2023-02-12T00:23:49.175Z,10.65
2023-02-12T00:26:18.208Z,11.15
2023-02-12T00:28:44.969Z,10.33
2023-02-12T00:31:15.156Z,11.16
2023-02-12T00:33:41.981Z,11.08
2023-02-12T00:36:12.743Z,10.72
2023-02-12T00:38:39.090Z,10.73
2023-02-12T00:41:05.466Z,10.97
2023-02-12T00:43:31.908Z,10.28
2023-02-12T00:45:58.713Z,10.98
2023-02-12T00:48:25.366Z,10.32
2023-02-12T00:50:51.785Z,10.71
2023-02-12T00:53:18.212Z,10.89
2023-02-12T00:55:44.559Z,10.94
2023-02-12T00:58:11.162Z,9.81
2023-02-12T01:00:37.572Z,10.23
2023-02-12T01:03:05.485Z,10.98
2023-02-12T01:05:32.128Z,10.01
2023-02-12T01:07:58.545Z,9.94
2023-02-12T01:10:25.196Z,10.51
2023-02-12T01:12:51.702Z,9.80
2023-02-12T01:15:19.220Z,10.81
2023-02-12T01:17:45.902Z,10.92
2023-02-12T01:20:17.558Z,11.01
2023-02-12T01:22:44.760Z,10.91
2023-02-12T01:25:11.792Z,10.98
2023-02-12T01:27:38.809Z,10.70
2023-02-12T01:30:09.031Z,10.47
2023-02-12T01:32:35.479Z,10.41
2023-02-12T01:35:02.203Z,10.92
2023-02-12T01:37:28.566Z,10.87
2023-02-12T01:39:54.928Z,10.16
2023-02-12T01:42:21.325Z,10.66
2023-02-12T01:45:12.807Z,10.94
2023-02-12T01:47:45.050Z,10.52
2023-02-12T01:50:15.898Z,9.69
2023-02-12T01:52:50.316Z,10.37
2023-02-12T02:30:30.279Z,10.78
2023-02-12T02:33:09.962Z,10.10
2023-02-12T02:35:58.162Z,10.84
2023-02-12T02:38:34.152Z,10.09
2023-02-12T02:41:27.575Z,10.17
2023-02-12T02:43:54.670Z,10.33
2023-02-12T02:46:32.460Z,10.18
2023-02-12T02:49:03.242Z,10.65
2023-02-12T02:51:34.709Z,10.07
2023-02-12T02:54:15.072Z,10.78
2023-02-12T02:56:44.991Z,10.78
2023-02-12T02:59:21.890Z,10.80
2023-02-12T03:01:58.017Z,10.03
2023-02-12T03:04:38.973Z,10.22
2023-02-12T03:07:13.861Z,10.77
2023-02-12T03:09:45.226Z,9.93
2023-02-12T03:12:20.012Z,10.32
2023-02-12T03:14:58.020Z,10.15
2023-02-12T03:17:32.642Z,9.84
2023-02-12T03:20:05.382Z,10.02
2023-02-12T03:22:36.110Z,10.61
2023-02-12T03:25:41.547Z,10.73
2023-02-12T03:28:20.555Z,10.17
2023-02-12T03:31:03.402Z,9.97
2023-02-12T03:33:42.016Z,10.70
2023-02-12T03:36:21.309Z,9.89
2023-02-12T03:38:55.306Z,9.94
2023-02-12T03:41:28.087Z,10.02
2023-02-12T03:44:08.283Z,10.06
2023-02-12T03:46:47.048Z,10.06
2023-02-12T03:49:23.712Z,10.08
2023-02-12T03:51:50.296Z,10.01
2023-02-12T03:54:19.900Z,10.03
2023-02-12T03:56:52.411Z,10.17
2023-02-12T03:59:21.189Z,10.04
2023-02-12T04:01:49.986Z,10.71
2023-02-12T04:04:17.222Z,10.46
2023-02-12T04:06:44.468Z,9.76
2023-02-12T04:09:12.776Z,10.06
2023-02-12T04:11:39.186Z,10.67
2023-02-12T04:14:41.236Z,10.70
2023-02-12T04:17:26.485Z,10.71
2023-02-12T04:20:15.477Z,10.71
2023-02-12T04:22:48.734Z,10.69
2023-02-12T04:25:39.320Z,10.15
2023-02-12T04:28:44.166Z,10.41
2023-02-12T04:31:24.116Z,10.68
2023-02-12T04:34:18.593Z,9.93
2023-02-12T04:36:51.671Z,10.16
2023-02-12T04:39:23.043Z,10.19
2023-02-12T04:41:49.735Z,9.95
2023-02-12T04:44:24.405Z,10.10
2023-02-12T04:46:51.608Z,9.86
2023-02-12T04:49:20.700Z,10.04
2023-02-12T04:51:48.132Z,9.95
2023-02-12T04:54:16.172Z,10.63
2023-02-12T04:56:42.899Z,10.71
2023-02-12T04:59:09.795Z,10.27
2023-02-12T05:01:37.898Z,10.10
2023-02-12T05:04:06.249Z,10.05
2023-02-12T05:06:36.140Z,9.97
2023-02-12T05:09:02.775Z,10.13
2023-02-12T05:11:29.181Z,9.97
2023-02-12T05:13:55.734Z,9.95
2023-02-12T05:16:22.338Z,9.87
2023-02-12T05:18:48.921Z,10.39
2023-02-12T05:21:15.485Z,9.97
2023-02-12T05:23:42.615Z,10.42
2023-02-12T05:26:13.200Z,10.62
2023-02-12T05:28:40.109Z,10.24
2023-02-12T05:31:08.681Z,9.84
2023-02-12T05:33:35.440Z,10.62
2023-02-12T05:36:05.948Z,10.62
2023-02-12T05:38:32.483Z,10.12
2023-02-12T05:41:06.517Z,10.09
2023-02-12T05:43:33.287Z,9.97
2023-02-12T05:46:01.261Z,10.10
2023-02-12T05:48:29.049Z,10.28
2023-02-12T05:51:02.462Z,10.05
2023-02-12T05:53:28.856Z,10.01
2023-02-12T05:55:55.624Z,9.99
2023-02-12T05:58:22.175Z,10.33
2023-02-12T06:00:48.543Z,9.78
2023-02-12T06:03:14.903Z,10.02
2023-02-12T06:05:41.258Z,9.96
2023-02-12T06:08:07.734Z,9.97
2023-02-12T06:10:34.065Z,9.82
2023-02-12T06:13:00.495Z,10.04
2023-02-12T06:15:26.843Z,10.42
2023-02-12T06:17:53.193Z,9.80
2023-02-12T06:20:19.538Z,9.86
2023-02-12T06:22:45.937Z,9.96
2023-02-12T06:25:12.322Z,10.11
2023-02-12T06:27:38.693Z,10.01
2023-02-12T06:30:05.675Z,9.91
2023-02-12T06:32:32.031Z,10.07
2023-02-12T06:34:58.398Z,9.99
2023-02-12T06:37:25.817Z,10.26
2023-02-12T06:39:52.225Z,10.16
2023-02-12T06:42:18.729Z,9.96
2023-02-12T06:44:46.592Z,10.01
2023-02-12T06:47:13.029Z,10.17
2023-02-12T06:49:39.380Z,10.25
2023-02-12T06:52:05.815Z,9.84
2023-02-12T06:54:32.211Z,9.81
2023-02-12T06:56:58.597Z,10.09
2023-02-12T06:59:24.998Z,9.97
2023-02-12T07:01:51.341Z,9.97
2023-02-12T07:04:17.857Z,9.77
2023-02-12T07:06:44.307Z,10.05
2023-02-12T07:09:10.731Z,9.85
2023-02-12T07:11:38.731Z,10.28
2023-02-12T07:14:06.191Z,9.86
2023-02-12T07:16:32.778Z,9.74
2023-02-12T07:19:00.483Z,10.26
2023-02-12T07:21:26.903Z,9.32
2023-02-12T07:23:53.393Z,10.57
2023-02-12T07:26:21.380Z,10.01
2023-02-12T07:28:49.012Z,10.58
2023-02-12T07:31:17.931Z,10.10
2023-02-12T07:33:45.072Z,10.58
2023-02-12T07:36:14.115Z,10.34
2023-02-12T07:38:40.979Z,9.99
2023-02-12T07:41:15.274Z,10.49
2023-02-12T07:43:43.398Z,10.12
2023-02-12T07:46:12.529Z,10.09
2023-02-12T07:48:39.589Z,10.09
2023-02-12T07:51:08.783Z,10.72
2023-02-12T07:53:36.030Z,10.20
2023-02-12T07:56:10.827Z,9.77
2023-02-12T07:58:38.324Z,10.81
2023-02-12T08:01:32.948Z,10.72
2023-02-12T08:04:02.393Z,10.78
2023-02-12T08:06:31.271Z,9.97
2023-02-12T08:09:00.407Z,10.49
2023-02-12T08:11:28.900Z,10.51
2023-02-12T08:13:57.013Z,10.77
2023-02-12T08:16:26.275Z,10.99
2023-02-12T08:18:53.325Z,10.42
2023-02-12T08:21:22.722Z,10.67
2023-02-12T08:23:52.556Z,11.07
2023-02-12T08:26:26.255Z,10.89
2023-02-12T08:28:56.386Z,11.28
2023-02-12T08:31:28.296Z,10.85
2023-02-12T08:33:56.200Z,10.91
2023-02-12T08:36:34.187Z,11.19
2023-02-12T08:39:03.208Z,11.03
2023-02-12T08:41:30.460Z,11.17
2023-02-12T08:43:59.916Z,10.72
2023-02-12T08:46:31.399Z,11.19
2023-02-12T08:49:00.715Z,11.29
2023-02-12T08:51:30.431Z,11.21
2023-02-12T08:53:59.636Z,11.45
2023-02-12T08:56:28.322Z,11.55
2023-02-12T08:58:55.671Z,10.87
2023-02-12T09:01:24.435Z,11.54
2023-02-12T09:03:51.938Z,11.60
2023-02-12T09:06:20.297Z,10.75
2023-02-12T09:08:46.935Z,10.77
2023-02-12T09:11:19.108Z,11.09
2023-02-12T09:13:47.311Z,11.26
2023-02-12T09:16:14.398Z,11.53
2023-02-12T09:19:12.075Z,11.52
2023-02-12T09:21:38.571Z,10.63
2023-02-12T09:24:05.056Z,11.20
2023-02-12T09:26:36.573Z,11.59
2023-02-12T09:29:04.261Z,11.03
2023-02-12T09:31:32.290Z,10.87
2023-02-12T09:34:04.464Z,11.80
2023-02-12T09:36:31.503Z,11.16
2023-02-12T09:38:59.437Z,11.86
2023-02-12T09:42:00.014Z,11.98
2023-02-12T09:44:48.211Z,12.09
2023-02-12T09:47:44.484Z,11.87
2023-02-12T09:50:29.843Z,12.21
2023-02-12T09:52:59.052Z,11.75
2023-02-12T09:55:32.654Z,11.84
2023-02-12T09:58:02.147Z,11.50
2023-02-12T10:00:31.458Z,12.01
2023-02-12T10:03:05.109Z,12.17
2023-02-12T10:05:37.851Z,12.05
2023-02-12T10:08:07.214Z,12.47
2023-02-12T10:10:45.724Z,12.57
2023-02-12T10:13:27.125Z,12.54
2023-02-12T10:16:18.230Z,12.32
2023-02-12T10:19:06.356Z,12.51
2023-02-12T10:22:03.805Z,12.48
2023-02-12T10:24:49.260Z,12.53
2023-02-12T10:27:20.721Z,12.52
2023-02-12T10:29:48.727Z,12.62
2023-02-12T10:32:35.847Z,12.72
2023-02-12T10:35:12.449Z,12.64
2023-02-12T10:37:57.331Z,12.82
2023-02-12T10:40:33.885Z,12.80
2023-02-12T10:43:02.452Z,12.65
2023-02-12T10:45:33.850Z,12.86
2023-02-12T10:48:12.325Z,12.84
2023-02-12T10:50:49.412Z,12.54
2023-02-12T10:53:26.153Z,12.39
2023-02-12T10:56:25.690Z,12.60
2023-02-12T10:58:59.544Z,12.66
2023-02-12T11:01:25.995Z,12.71
2023-02-12T11:03:54.184Z,12.36
2023-02-12T11:06:30.467Z,12.74
2023-02-12T11:09:00.716Z,12.47
2023-02-12T11:11:36.955Z,12.21
2023-02-12T11:14:16.602Z,12.66
2023-02-12T11:17:02.514Z,12.42
2023-02-12T11:19:32.407Z,12.55
2023-02-12T11:22:18.530Z,11.90
2023-02-12T11:24:46.986Z,12.13
2023-02-12T11:27:16.316Z,12.78
2023-02-12T11:29:44.551Z,12.79
2023-02-12T11:32:21.059Z,12.80
2023-02-12T11:35:10.819Z,12.86
2023-02-12T11:37:41.968Z,12.63
2023-02-12T11:40:16.729Z,11.94
2023-02-12T11:42:49.457Z,12.50
2023-02-12T11:45:19.715Z,12.79
2023-02-12T11:47:48.958Z,12.31
2023-02-12T11:50:26.787Z,12.32
2023-02-12T11:52:59.046Z,12.44
2023-02-12T11:55:33.138Z,12.19
2023-02-12T11:58:17.425Z,12.88
2023-02-12T12:00:54.542Z,13.18
2023-02-12T12:03:49.201Z,12.94
2023-02-12T12:06:27.349Z,13.08
2023-02-12T12:09:05.685Z,13.36
2023-02-12T12:11:58.133Z,13.44
2023-02-12T12:14:34.352Z,13.28
2023-02-12T12:17:24.793Z,12.92
2023-02-12T12:19:59.487Z,13.47
2023-02-12T12:22:53.585Z,13.52
2023-02-12T12:25:28.683Z,13.32
2023-02-12T12:28:23.159Z,13.55
2023-02-12T12:31:20.479Z,13.40
2023-02-12T12:33:52.768Z,13.03
2023-02-12T12:36:41.398Z,13.55
2023-02-12T12:39:21.276Z,13.12
2023-02-12T12:42:12.626Z,13.78
2023-02-12T12:45:01.861Z,13.80
2023-02-12T12:47:54.253Z,13.51
2023-02-12T12:50:45.541Z,13.43
2023-02-12T12:53:14.915Z,13.79
2023-02-12T12:56:18.321Z,13.88
2023-02-12T12:59:15.142Z,13.85
2023-02-12T13:01:53.527Z,13.77
2023-02-12T13:04:55.977Z,13.85
2023-02-12T13:07:30.842Z,13.66
2023-02-12T13:10:34.848Z,13.84
2023-02-12T13:13:20.339Z,13.84
2023-02-12T13:16:16.041Z,13.70
2023-02-12T13:18:47.624Z,13.81
2023-02-12T13:21:19.944Z,13.92
2023-02-12T13:23:57.754Z,13.11
2023-02-12T13:26:42.790Z,13.75
2023-02-12T13:29:19.010Z,13.83
2023-02-12T13:31:51.152Z,13.57
2023-02-12T13:34:19.910Z,13.69
2023-02-12T13:36:48.287Z,13.24
2023-02-12T13:39:18.781Z,13.88
2023-02-12T13:41:58.473Z,13.18
2023-02-12T13:44:36.767Z,13.16
2023-02-12T13:47:13.530Z,13.61
2023-02-12T13:49:55.664Z,13.81
2023-02-12T13:52:27.972Z,13.88
2023-02-12T13:55:19.317Z,13.85
2023-02-12T13:57:45.732Z,13.03
2023-02-12T14:00:50.021Z,13.89
2023-02-12T14:03:16.478Z,13.67
2023-02-12T14:05:43.006Z,13.47
2023-02-12T14:08:35.429Z,13.85
2023-02-12T14:11:12.776Z,13.93
2023-02-12T14:13:58.285Z,13.14
2023-02-12T14:16:32.446Z,13.85
2023-02-12T14:19:37.306Z,13.87
2023-02-12T14:22:26.157Z,13.86
2023-02-12T14:24:54.914Z,13.79
2023-02-12T14:27:36.476Z,13.82
2023-02-12T14:30:31.525Z,13.85
2023-02-12T14:33:10.745Z,13.24
2023-02-12T14:35:42.491Z,13.79
2023-02-12T14:38:12.040Z,13.76
2023-02-12T14:40:44.014Z,13.47
2023-02-12T14:44:01.328Z,13.73
2023-02-12T14:46:27.730Z,13.72
2023-02-12T14:49:06.053Z,13.52
2023-02-12T14:54:45.318Z,13.68
2023-02-12T14:57:22.679Z,13.16
2023-02-12T14:59:52.178Z,13.03
2023-02-12T15:02:30.694Z,13.24
2023-02-12T15:05:09.706Z,13.55
2023-02-12T15:07:44.537Z,12.76
2023-02-12T15:10:24.599Z,13.60
2023-02-12T15:13:07.366Z,13.07
2023-02-12T15:15:39.811Z,12.76
2023-02-12T15:18:30.798Z,13.40
2023-02-12T15:21:14.093Z,13.18
2023-02-12T15:23:43.268Z,12.91
2023-02-12T15:26:18.936Z,13.45
2023-02-12T15:28:54.793Z,13.13
2023-02-12T15:31:29.379Z,13.33
2023-02-12T15:34:01.138Z,12.74
2023-02-12T15:36:31.213Z,12.75
2023-02-12T15:39:06.866Z,12.81
2023-02-12T15:41:33.297Z,13.49
2023-02-12T15:44:24.964Z,12.78
2023-02-12T15:47:14.003Z,13.10
2023-02-12T15:49:43.117Z,12.36
2023-02-12T15:52:18.602Z,13.47
2023-02-12T15:54:46.734Z,13.32
2023-02-12T15:57:20.041Z,13.42
2023-02-12T15:59:54.617Z,12.92
2023-02-12T16:02:37.609Z,12.58
2023-02-12T16:05:05.718Z,12.80
2023-02-12T16:07:36.843Z,13.27
2023-02-12T16:10:08.210Z,12.28
2023-02-12T16:12:37.586Z,13.13
2023-02-12T16:15:04.815Z,13.05
2023-02-12T16:17:34.363Z,13.24
2023-02-12T16:20:15.273Z,12.52
2023-02-12T16:22:44.511Z,12.22
2023-02-12T16:25:19.053Z,13.11
2023-02-12T16:28:17.764Z,13.17
2023-02-12T16:30:45.007Z,13.08
2023-02-12T16:33:53.260Z,13.20
2023-02-12T16:36:19.670Z,13.18
2023-02-12T16:38:52.078Z,12.67
2023-02-12T16:41:18.443Z,13.12
2023-02-12T16:43:46.433Z,13.11
2023-02-12T16:46:14.571Z,12.92
2023-02-12T16:48:49.255Z,13.08
2023-02-12T16:51:33.854Z,13.00
2023-02-12T16:54:02.310Z,12.98
2023-02-12T16:56:31.420Z,12.89
2023-02-12T16:58:59.840Z,12.67
2023-02-12T17:01:33.394Z,12.83
2023-02-12T17:04:01.716Z,12.92
2023-02-12T17:06:31.039Z,12.96
2023-02-12T17:08:58.228Z,12.72
2023-02-12T17:11:26.075Z,12.76
2023-02-12T17:13:54.211Z,12.06
2023-02-12T17:16:30.258Z,11.96
2023-02-12T17:18:57.475Z,12.28
2023-02-12T17:21:27.333Z,12.21
2023-02-12T17:23:56.621Z,11.96
2023-02-12T17:26:24.312Z,12.84
2023-02-12T17:28:50.894Z,12.79
2023-02-12T17:31:17.585Z,12.86
2023-02-12T17:33:44.422Z,12.66
2023-02-12T17:36:11.731Z,12.75
2023-02-12T17:38:38.172Z,12.70
2023-02-12T17:41:09.888Z,11.98
2023-02-12T17:43:36.496Z,12.78
2023-02-12T17:46:09.140Z,12.71
2023-02-12T17:48:35.640Z,12.74
2023-02-12T17:51:02.128Z,11.56
2023-02-12T17:53:28.481Z,12.72
2023-02-12T17:55:54.826Z,12.68
2023-02-12T17:58:21.178Z,12.23
2023-02-12T18:00:47.586Z,12.72
2023-02-12T18:03:14.230Z,12.27
2023-02-12T18:05:43.343Z,12.57
2023-02-12T18:08:12.585Z,11.97
2023-02-12T18:10:43.577Z,11.79
2023-02-12T18:13:14.054Z,12.56
2023-02-12T18:15:41.316Z,11.76
2023-02-12T18:18:08.422Z,12.48
2023-02-12T18:20:42.137Z,11.63
2023-02-12T18:23:09.691Z,12.09
2023-02-12T18:25:43.959Z,11.35
2023-02-12T18:28:34.907Z,12.51
2023-02-12T18:31:05.268Z,11.45
2023-02-12T18:33:34.018Z,11.90
2023-02-12T18:36:18.341Z,12.24
2023-02-12T18:38:46.606Z,11.51
2023-02-12T18:41:18.672Z,12.02
2023-02-12T18:43:45.965Z,11.58
2023-02-12T18:46:15.325Z,11.95
2023-02-12T18:48:45.302Z,11.04
2023-02-12T18:51:17.470Z,12.23
2023-02-12T18:53:44.206Z,11.04
2023-02-12T18:56:12.015Z,11.76
2023-02-12T18:58:39.524Z,11.34
2023-02-12T19:01:19.995Z,12.17
2023-02-12T19:03:56.312Z,11.59
2023-02-12T19:06:23.821Z,12.13
2023-02-12T19:08:54.871Z,10.70
2023-02-12T19:11:21.368Z,11.26
2023-02-12T19:13:51.006Z,12.00
2023-02-12T19:16:19.170Z,11.94
2023-02-12T19:18:50.510Z,11.44
2023-02-12T19:21:17.538Z,11.44
2023-02-12T19:23:48.556Z,11.48
2023-02-12T19:26:18.082Z,10.74
2023-02-12T19:28:44.545Z,11.92
2023-02-12T19:31:18.356Z,12.04
2023-02-12T19:33:46.360Z,11.42
2023-02-12T19:36:15.903Z,10.71
2023-02-12T19:38:48.638Z,11.81
2023-02-12T19:41:21.975Z,11.38
2023-02-12T19:43:51.137Z,10.97
2023-02-12T19:46:19.698Z,11.37
2023-02-12T19:48:49.317Z,11.29
2023-02-12T19:51:20.571Z,11.17
2023-02-12T19:53:50.297Z,11.25
2023-02-12T19:56:17.358Z,10.97
2023-02-12T19:58:48.100Z,10.86
2023-02-12T20:01:19.432Z,10.76
2023-02-12T20:03:50.711Z,10.92
2023-02-12T20:06:24.157Z,11.53
2023-02-12T20:08:56.481Z,10.74
2023-02-12T20:11:32.418Z,10.77
2023-02-12T20:14:04.684Z,10.16
2023-02-12T20:16:55.396Z,10.86
2023-02-12T20:19:25.477Z,10.69
2023-02-12T20:22:01.617Z,11.25
2023-02-12T20:25:18.254Z,10.34
2023-02-12T20:27:25.495Z,10.22
2023-02-12T20:30:24.909Z,10.04
2023-02-12T20:36:46.690Z,10.33
2023-02-12T20:39:30.986Z,9.92
2023-02-12T20:41:57.761Z,10.38
2023-02-12T20:44:24.463Z,10.18
2023-02-12T20:46:56.119Z,10.23
2023-02-12T20:49:23.901Z,10.79
2023-02-12T20:51:50.946Z,11.11
2023-02-12T20:54:26.869Z,9.98
2023-02-12T20:56:53.737Z,10.23
2023-02-12T20:59:22.902Z,9.96
2023-02-12T21:02:15.529Z,11.16
2023-02-12T21:11:31.867Z,10.19
2023-02-12T21:14:36.755Z,10.55
2023-02-12T21:21:26.938Z,11.22
2023-02-12T21:24:03.711Z,10.19
2023-02-12T21:27:06.601Z,10.86
2023-02-12T21:29:43.327Z,10.19
2023-02-12T21:33:26.746Z,10.43
2023-02-12T21:39:17.820Z,10.75
2023-02-12T21:42:50.087Z,10.14
2023-02-12T21:53:06.607Z,11.23
2023-02-12T22:04:11.032Z,10.85
2023-02-12T22:06:43.253Z,10.27
2023-02-12T22:09:12.580Z,10.37
2023-02-12T22:11:43.184Z,9.96
2023-02-12T22:14:14.280Z,9.89
2023-02-12T22:16:42.297Z,10.58
2023-02-12T22:19:09.510Z,9.92
2023-02-12T22:21:39.080Z,10.56
2023-02-12T22:24:07.954Z,9.96
2023-02-12T22:26:35.543Z,9.98
2023-02-12T22:29:09.317Z,9.76
2023-02-12T22:31:38.762Z,9.79
2023-02-12T22:34:10.514Z,9.75
2023-02-12T22:36:40.121Z,9.76
2023-02-12T22:39:07.164Z,9.49
2023-02-12T22:41:34.495Z,9.92
2023-02-12T22:44:05.135Z,9.69
2023-02-12T22:46:33.781Z,9.47
2023-02-12T22:49:03.492Z,9.43
2023-02-12T22:51:37.214Z,9.33
2023-02-12T22:54:07.438Z,9.25
2023-02-12T22:56:37.150Z,9.29
2023-02-12T22:59:14.545Z,9.08
2023-02-12T23:01:42.593Z,9.11
2023-02-12T23:04:19.417Z,9.86
2023-02-12T23:06:48.031Z,9.10
2023-02-12T23:09:18.487Z,8.99
2023-02-12T23:14:27.946Z,9.61
2023-02-12T23:17:07.275Z,8.92
2023-02-12T23:19:38.114Z,9.64
2023-02-12T23:22:09.757Z,9.31
2023-02-12T23:24:41.069Z,9.13
2023-02-12T23:27:08.660Z,9.13
2023-02-12T23:29:36.311Z,8.91
2023-02-12T23:32:03.883Z,9.33
2023-02-12T23:34:34.071Z,9.33
2023-02-12T23:37:04.752Z,9.75
2023-02-12T23:39:32.253Z,8.99
2023-02-12T23:41:59.412Z,8.97
2023-02-12T23:44:26.230Z,9.37
2023-02-12T23:46:54.477Z,9.05
2023-02-12T23:49:21.869Z,9.08
2023-02-12T23:51:49.104Z,9.75
2023-02-12T23:54:18.776Z,9.57
2023-02-12T23:56:45.845Z,9.19
2023-02-12T23:59:12.913Z,9.14
